Terminal Aerodrome Forecast
Issued by NWS Binghamton, NY

Home | Current Version | Previous Version | Text Only | Print | Product List | Glossary On
Versions: 1 2 3 4 5 6 7 8 9 10 11 12 13 14 15 16 17
000
FTUS41 KBGM 261130
TAFSYR
TAF
KSYR 261130Z 2612/2712 23011KT P6SM BKN050 OVC100
     FM261900 20011KT P6SM -SHRA BKN050 OVC100
      TEMPO 2622/2624 3SM -TSRA BR BKN050CB
     FM270300 16006KT P6SM OVC050
     FM270900 19006KT P6SM -SHRA OVC035=

USA.gov is the U.S. government's official web portal to all federal, state and local government web resources and services.